Franklin, Kentucky
Current Conditions -  °F | °C
As of 7:53 PM on Tuesday 21 Oct 2014 (Local Time) from KBWG Reporting Station
Scattered Clouds Scattered Clouds  
Wind Chill: 56°   Ceiling: Unl
Heat Index: 56°   Visibility: 10mi
Dew Point: 42°   Wind: 8mph
Humidity: 60%   Direction: 20°NNE
Pressure: 30.12"   Gusts: NA
Location:  36.72°N, 86.58°W
Report Text: KBWG 220053Z AUTO 02007KT 10SM SCT050 13/06 A3012 RMK AO2 SLP198 T01330056
Loading
Personal Weather Stations






























Interactive Weather Map
Tropical Storm Tracking
New forecast layout! Learn more

10-Day Weather Forecast

Advertisements
Track Severe Weather on mobile